createdAt,value
2023-05-13T00:00:49.515Z,13.63
2023-05-13T00:01:52.883Z,13.63
2023-05-13T00:02:56.711Z,13.60
2023-05-13T00:04:00.456Z,13.60
2023-05-13T00:05:04.048Z,13.59
2023-05-13T00:06:07.946Z,13.57
2023-05-13T00:07:11.564Z,13.56
2023-05-13T00:08:15.159Z,13.55
2023-05-13T00:09:18.380Z,13.55
2023-05-13T00:10:22.179Z,13.53
2023-05-13T00:11:25.574Z,13.53
2023-05-13T00:12:29.230Z,13.52
2023-05-13T00:13:32.892Z,13.52
2023-05-13T00:14:36.254Z,13.51
2023-05-13T00:15:41.174Z,13.50
2023-05-13T00:16:44.408Z,13.48
2023-05-13T00:17:47.838Z,13.49
2023-05-13T00:18:52.959Z,13.51
2023-05-13T00:19:56.302Z,13.50
2023-05-13T00:20:59.740Z,13.50
2023-05-13T00:22:03.464Z,13.51
2023-05-13T00:23:08.661Z,13.52
2023-05-13T00:24:12.604Z,13.49
2023-05-13T00:25:16.086Z,13.47
2023-05-13T00:26:19.097Z,13.45
2023-05-13T00:27:24.331Z,13.44
2023-05-13T00:28:27.957Z,13.40
2023-05-13T00:29:32.378Z,13.37
2023-05-13T00:30:36.002Z,13.34
2023-05-13T00:31:39.396Z,13.30
2023-05-13T00:32:42.593Z,13.28
2023-05-13T00:33:46.172Z,13.26
2023-05-13T00:34:49.726Z,13.25
2023-05-13T00:35:53.343Z,13.26
2023-05-13T00:36:56.423Z,13.23
2023-05-13T00:38:00.721Z,13.25
2023-05-13T00:39:04.489Z,13.23
2023-05-13T00:40:09.846Z,13.23
2023-05-13T00:41:13.543Z,13.23
2023-05-13T00:42:17.216Z,13.24
2023-05-13T00:43:20.685Z,13.23
2023-05-13T00:44:23.935Z,13.22
2023-05-13T00:45:27.364Z,13.19
2023-05-13T00:46:36.037Z,13.19
2023-05-13T00:47:42.883Z,13.20
2023-05-13T00:48:46.245Z,13.18
2023-05-13T00:49:50.163Z,13.16
2023-05-13T00:50:53.377Z,13.19
2023-05-13T00:51:56.821Z,13.20
2023-05-13T00:53:00.382Z,13.22
2023-05-13T00:54:03.587Z,13.19
2023-05-13T00:55:07.381Z,13.21
2023-05-13T00:56:10.590Z,13.21
2023-05-13T00:57:13.955Z,13.20
2023-05-13T00:58:18.552Z,13.22
2023-05-13T00:59:22.455Z,13.20
2023-05-13T01:00:26.050Z,13.17
2023-05-13T01:02:08.716Z,13.13
2023-05-13T01:03:15.232Z,13.11
2023-05-13T01:04:56.011Z,13.08
2023-05-13T01:06:19.089Z,13.08
2023-05-13T01:07:36.409Z,13.04
2023-05-13T01:08:53.471Z,12.98
2023-05-13T01:10:16.511Z,12.97
2023-05-13T01:11:29.618Z,12.95
2023-05-13T01:12:41.944Z,12.92
2023-05-13T01:13:47.855Z,12.88
2023-05-13T01:15:00.652Z,12.83
2023-05-13T01:16:39.768Z,12.86
2023-05-13T01:18:07.564Z,12.85
2023-05-13T01:19:32.563Z,12.85
2023-05-13T01:20:35.765Z,12.83
2023-05-13T01:21:40.011Z,12.80
2023-05-13T01:22:43.326Z,12.76
2023-05-13T01:23:47.144Z,12.76
2023-05-13T01:24:51.579Z,12.76
2023-05-13T01:25:56.157Z,12.77
2023-05-13T01:27:01.062Z,12.78
2023-05-13T01:28:04.520Z,12.78
2023-05-13T01:29:08.525Z,12.71
2023-05-13T01:30:12.158Z,12.70
2023-05-13T01:31:15.516Z,12.71
2023-05-13T01:32:19.664Z,12.68
2023-05-13T01:33:23.218Z,12.67
2023-05-13T01:34:27.138Z,12.66
2023-05-13T01:35:30.817Z,12.66
2023-05-13T01:36:34.372Z,12.65
2023-05-13T01:37:38.508Z,12.64
2023-05-13T01:38:41.665Z,12.61
2023-05-13T01:39:45.324Z,12.59
2023-05-13T01:40:51.031Z,12.58
2023-05-13T01:41:54.286Z,12.57
2023-05-13T01:42:57.447Z,12.56
2023-05-13T01:44:00.677Z,12.57
2023-05-13T01:45:04.829Z,12.57
2023-05-13T01:46:14.583Z,12.61
2023-05-13T01:47:17.710Z,12.61
2023-05-13T01:48:21.242Z,12.62
2023-05-13T01:49:26.795Z,12.64
2023-05-13T01:50:29.943Z,12.69
2023-05-13T01:51:34.256Z,12.72
2023-05-13T01:52:37.826Z,12.73
2023-05-13T01:53:41.679Z,12.73
2023-05-13T01:54:45.614Z,12.72
2023-05-13T01:55:51.356Z,12.72
2023-05-13T01:56:54.925Z,12.68
2023-05-13T01:57:58.749Z,12.66
2023-05-13T01:59:02.646Z,12.65
2023-05-13T02:00:07.267Z,12.64
2023-05-13T02:01:30.463Z,12.64
2023-05-13T02:02:33.452Z,12.63
2023-05-13T02:03:37.376Z,12.61
2023-05-13T02:04:40.855Z,12.58
2023-05-13T02:05:44.156Z,12.57
2023-05-13T02:06:47.795Z,12.56
2023-05-13T02:07:51.685Z,12.56
2023-05-13T02:08:55.648Z,12.53
2023-05-13T02:10:00.242Z,12.52
2023-05-13T02:11:03.357Z,12.47
2023-05-13T02:12:07.272Z,12.45
2023-05-13T02:13:10.334Z,12.43
2023-05-13T02:14:14.865Z,12.43
2023-05-13T02:15:18.695Z,12.42
2023-05-13T02:16:22.517Z,12.39
2023-05-13T02:17:26.059Z,12.38
2023-05-13T02:18:30.174Z,12.37
2023-05-13T02:19:33.662Z,12.38
2023-05-13T02:20:36.712Z,12.36
2023-05-13T02:21:40.277Z,12.38
2023-05-13T02:22:44.334Z,12.37
2023-05-13T02:23:47.885Z,12.39
2023-05-13T02:24:51.404Z,12.40
2023-05-13T02:25:54.615Z,12.40
2023-05-13T02:26:58.199Z,12.39
2023-05-13T02:28:02.075Z,12.39
2023-05-13T02:29:05.311Z,12.37
2023-05-13T02:30:08.748Z,12.38
2023-05-13T02:31:12.101Z,12.40
2023-05-13T02:32:15.201Z,12.38
2023-05-13T02:33:18.838Z,12.37
2023-05-13T02:34:22.269Z,12.34
2023-05-13T02:35:30.462Z,12.34
2023-05-13T02:36:36.155Z,12.36
2023-05-13T02:37:42.039Z,12.35
2023-05-13T02:38:47.214Z,12.36
2023-05-13T02:39:52.664Z,12.33
2023-05-13T02:40:56.423Z,12.33
2023-05-13T02:42:01.785Z,12.31
2023-05-13T02:43:08.672Z,12.36
2023-05-13T02:44:24.003Z,12.37
2023-05-13T02:45:27.225Z,12.39
2023-05-13T02:46:32.725Z,12.39
2023-05-13T02:47:36.467Z,12.34
2023-05-13T02:48:41.794Z,12.34
2023-05-13T02:49:45.465Z,12.29
2023-05-13T02:50:48.978Z,12.27
2023-05-13T02:51:52.962Z,12.26
2023-05-13T02:53:01.235Z,12.26
2023-05-13T02:54:04.747Z,12.24
2023-05-13T02:55:08.875Z,12.26
2023-05-13T02:56:17.068Z,12.26
2023-05-13T02:57:20.729Z,12.25
2023-05-13T02:58:23.661Z,12.25
2023-05-13T02:59:27.191Z,12.23
2023-05-13T03:00:30.743Z,12.21
2023-05-13T03:01:34.487Z,12.19
2023-05-13T03:02:38.095Z,12.17
2023-05-13T03:03:41.173Z,12.11
2023-05-13T03:04:44.913Z,12.12
2023-05-13T03:05:48.135Z,12.11
2023-05-13T03:06:52.130Z,12.11
2023-05-13T03:07:55.702Z,12.10
2023-05-13T03:08:59.603Z,12.10
2023-05-13T03:10:03.798Z,12.11
2023-05-13T03:11:07.252Z,12.13
2023-05-13T03:12:10.642Z,12.13
2023-05-13T03:13:14.260Z,12.11
2023-05-13T03:14:19.233Z,12.09
2023-05-13T03:15:23.206Z,12.10
2023-05-13T03:16:27.855Z,12.08
2023-05-13T03:17:32.491Z,12.08
2023-05-13T03:18:36.811Z,12.08
2023-05-13T03:19:40.194Z,12.08
2023-05-13T03:20:43.718Z,12.03
2023-05-13T03:21:46.694Z,12.05
2023-05-13T03:22:52.679Z,12.02
2023-05-13T03:23:56.579Z,12.03
2023-05-13T03:25:00.491Z,12.02
2023-05-13T03:26:09.780Z,12.00
2023-05-13T03:27:12.740Z,11.98
2023-05-13T03:28:16.475Z,11.97
2023-05-13T03:29:20.397Z,11.96
2023-05-13T03:30:24.162Z,11.97
2023-05-13T03:31:35.482Z,11.98
2023-05-13T03:32:40.603Z,11.96
2023-05-13T03:33:44.933Z,11.96
2023-05-13T03:34:49.369Z,11.96
2023-05-13T03:35:53.660Z,11.96
2023-05-13T03:37:02.009Z,11.95
2023-05-13T03:38:06.585Z,11.91
2023-05-13T03:39:13.225Z,11.90
2023-05-13T03:40:16.407Z,11.90
2023-05-13T03:41:20.029Z,11.88
2023-05-13T03:42:24.991Z,11.87
2023-05-13T03:43:29.858Z,11.86
2023-05-13T03:44:37.593Z,11.84
2023-05-13T03:45:40.938Z,11.82
2023-05-13T03:46:49.532Z,11.81
2023-05-13T03:47:53.433Z,11.80
2023-05-13T03:48:59.311Z,11.82
2023-05-13T03:50:05.294Z,11.83
2023-05-13T03:51:15.069Z,11.80
2023-05-13T03:52:18.526Z,11.81
2023-05-13T03:53:22.146Z,11.78
2023-05-13T03:54:25.612Z,11.77
2023-05-13T03:55:28.424Z,11.78
2023-05-13T03:56:32.044Z,11.76
2023-05-13T03:57:36.053Z,11.77
2023-05-13T03:58:40.928Z,11.75
2023-05-13T03:59:44.697Z,11.76
2023-05-13T04:00:49.363Z,11.72
2023-05-13T04:01:52.751Z,11.69
2023-05-13T04:02:56.230Z,11.69
2023-05-13T04:03:59.453Z,11.67
2023-05-13T04:05:02.697Z,11.65
2023-05-13T04:06:05.983Z,11.62
2023-05-13T04:07:09.742Z,11.61
2023-05-13T04:08:13.296Z,11.60
2023-05-13T04:09:16.877Z,11.60
2023-05-13T04:10:21.359Z,11.56
2023-05-13T04:11:25.016Z,11.57
2023-05-13T04:12:28.323Z,11.56
2023-05-13T04:13:33.885Z,11.58
2023-05-13T04:14:37.715Z,11.58
2023-05-13T04:15:40.906Z,11.53
2023-05-13T04:16:44.799Z,11.53
2023-05-13T04:17:48.326Z,11.54
2023-05-13T04:18:51.347Z,11.53
2023-05-13T04:19:55.403Z,11.52
2023-05-13T04:20:58.554Z,11.50
2023-05-13T04:22:01.423Z,11.52
2023-05-13T04:23:05.193Z,11.51
2023-05-13T04:24:08.545Z,11.52
2023-05-13T04:25:12.074Z,11.50
2023-05-13T04:26:17.906Z,11.49
2023-05-13T04:27:21.467Z,11.51
2023-05-13T04:28:24.897Z,11.50
2023-05-13T04:29:29.470Z,11.50
2023-05-13T04:30:33.069Z,11.47
2023-05-13T04:31:36.628Z,11.48
2023-05-13T04:32:40.298Z,11.47
2023-05-13T04:33:45.742Z,11.46
2023-05-13T04:34:50.060Z,11.43
2023-05-13T04:35:53.823Z,11.42
2023-05-13T04:36:57.466Z,11.42
2023-05-13T04:38:01.644Z,11.44
2023-05-13T04:39:05.836Z,11.45
2023-05-13T04:40:10.276Z,11.47
2023-05-13T04:41:13.679Z,11.46
2023-05-13T04:42:20.355Z,11.48
2023-05-13T04:43:24.814Z,11.47
2023-05-13T04:44:32.885Z,11.47
2023-05-13T04:45:36.642Z,11.44
2023-05-13T04:46:45.630Z,11.42
2023-05-13T04:47:49.102Z,11.40
2023-05-13T04:48:52.428Z,11.35
2023-05-13T04:49:56.717Z,11.31
2023-05-13T04:51:00.887Z,11.28
2023-05-13T04:52:06.498Z,11.23
2023-05-13T04:53:10.859Z,11.21
2023-05-13T04:54:14.800Z,11.19
2023-05-13T04:55:18.073Z,11.17
2023-05-13T04:56:22.722Z,11.16
2023-05-13T04:57:26.229Z,11.14
2023-05-13T04:58:29.668Z,11.11
2023-05-13T04:59:33.795Z,11.12
2023-05-13T05:00:37.617Z,11.11
2023-05-13T05:01:40.881Z,11.11
2023-05-13T05:02:44.077Z,11.11
2023-05-13T05:03:47.670Z,11.10
2023-05-13T05:04:50.595Z,11.09
2023-05-13T05:05:54.871Z,11.07
2023-05-13T05:07:00.400Z,11.08
2023-05-13T05:08:03.902Z,11.04
2023-05-13T05:09:07.366Z,11.03
2023-05-13T05:10:12.127Z,11.05
2023-05-13T05:11:20.656Z,11.04
2023-05-13T05:12:24.309Z,11.05
2023-05-13T05:13:27.478Z,11.05
2023-05-13T05:14:31.386Z,11.03
2023-05-13T05:15:34.492Z,11.02
2023-05-13T05:16:40.519Z,11.01
2023-05-13T05:17:45.423Z,11.04
2023-05-13T05:18:48.978Z,11.07
2023-05-13T05:19:55.885Z,11.08
2023-05-13T05:21:01.790Z,11.10
2023-05-13T05:22:06.568Z,11.11
2023-05-13T05:23:11.447Z,11.14
2023-05-13T05:24:15.114Z,11.09
2023-05-13T05:25:18.418Z,11.08
2023-05-13T05:26:22.889Z,11.08
2023-05-13T05:27:25.969Z,11.13
2023-05-13T05:28:29.610Z,11.11
2023-05-13T05:29:33.466Z,11.11
2023-05-13T05:30:40.272Z,11.12
2023-05-13T05:31:50.532Z,11.15
2023-05-13T05:32:54.123Z,11.15
2023-05-13T05:33:57.495Z,11.20
2023-05-13T05:35:03.015Z,11.23
2023-05-13T05:36:08.417Z,11.26
2023-05-13T05:37:12.152Z,11.28
2023-05-13T05:38:15.587Z,11.28
2023-05-13T05:39:18.797Z,11.32
2023-05-13T05:40:23.037Z,11.38
2023-05-13T05:41:26.504Z,11.45
2023-05-13T05:42:30.139Z,11.47
2023-05-13T05:43:34.265Z,11.50
2023-05-13T05:44:38.183Z,11.54
2023-05-13T05:45:41.362Z,11.60
2023-05-13T05:46:47.525Z,11.65
2023-05-13T05:47:50.871Z,11.70
2023-05-13T05:48:54.062Z,11.76
2023-05-13T05:49:58.261Z,11.82
2023-05-13T05:51:01.876Z,11.89
2023-05-13T05:52:08.290Z,11.92
2023-05-13T05:53:11.620Z,11.98
2023-05-13T05:54:16.808Z,12.01
2023-05-13T05:55:20.198Z,12.08
2023-05-13T05:56:23.693Z,12.14
2023-05-13T05:57:27.151Z,12.22
2023-05-13T05:58:30.335Z,12.49
2023-05-13T05:59:33.671Z,13.10
2023-05-13T06:00:37.207Z,13.93
2023-05-13T06:01:41.696Z,14.91
2023-05-13T06:02:45.368Z,15.94
2023-05-13T06:03:50.919Z,16.92
2023-05-13T06:04:56.436Z,17.84
2023-05-13T06:05:59.651Z,18.62
2023-05-13T06:07:03.042Z,19.38
2023-05-13T06:08:06.748Z,20.00
2023-05-13T06:09:10.414Z,20.58
2023-05-13T06:10:13.688Z,20.94
2023-05-13T06:11:16.950Z,21.39
2023-05-13T06:12:20.544Z,21.89
2023-05-13T06:13:24.055Z,22.42
2023-05-13T06:14:27.387Z,22.89
2023-05-13T06:15:30.972Z,23.36
2023-05-13T06:16:34.462Z,23.87
2023-05-13T06:17:38.611Z,24.13
2023-05-13T06:18:44.028Z,24.55
2023-05-13T06:19:47.260Z,24.98
2023-05-13T06:20:51.180Z,25.34
2023-05-13T06:21:55.221Z,25.74
2023-05-13T06:22:58.774Z,26.14
2023-05-13T06:24:03.580Z,26.48
2023-05-13T06:25:06.932Z,26.89
2023-05-13T06:26:10.341Z,27.23
2023-05-13T06:27:14.221Z,27.61
2023-05-13T06:28:19.146Z,27.90
2023-05-13T06:29:22.921Z,28.19
2023-05-13T06:30:26.188Z,28.48
2023-05-13T06:31:29.243Z,28.66
2023-05-13T06:32:33.892Z,28.94
2023-05-13T06:33:37.401Z,28.95
2023-05-13T06:34:43.157Z,29.03
2023-05-13T06:35:50.466Z,29.08
2023-05-13T06:36:56.346Z,29.17
2023-05-13T06:37:59.611Z,29.49
2023-05-13T06:39:03.803Z,29.57
2023-05-13T06:40:08.935Z,29.79
2023-05-13T06:41:16.762Z,30.12
2023-05-13T06:42:20.510Z,30.36
2023-05-13T06:43:31.509Z,30.74
2023-05-13T06:44:36.196Z,31.01
2023-05-13T06:45:42.387Z,31.32
2023-05-13T06:46:46.191Z,31.58
2023-05-13T06:47:51.359Z,31.85
2023-05-13T06:48:56.452Z,32.10
2023-05-13T06:49:59.756Z,32.42
2023-05-13T06:51:02.888Z,32.71
2023-05-13T06:52:06.562Z,32.98
2023-05-13T06:53:12.241Z,33.22
2023-05-13T06:54:15.851Z,33.35
2023-05-13T06:55:19.975Z,33.58
2023-05-13T06:56:26.372Z,33.63
2023-05-13T06:57:41.828Z,33.40
2023-05-13T06:58:47.683Z,33.61
2023-05-13T06:59:50.997Z,33.03
2023-05-13T07:00:54.552Z,33.38
2023-05-13T07:01:57.827Z,33.44
2023-05-13T07:03:00.675Z,33.08
2023-05-13T07:04:04.112Z,32.97
2023-05-13T07:05:09.831Z,33.02
2023-05-13T07:06:14.729Z,33.28
2023-05-13T07:07:17.885Z,33.45
2023-05-13T07:08:21.284Z,33.11
2023-05-13T07:09:24.759Z,33.39
2023-05-13T07:10:28.382Z,33.69
2023-05-13T07:11:31.916Z,34.02
2023-05-13T07:12:35.566Z,34.38
2023-05-13T07:13:40.083Z,34.67
2023-05-13T07:14:46.218Z,33.32
2023-05-13T07:15:49.321Z,33.25
2023-05-13T07:16:53.212Z,33.71
2023-05-13T07:17:56.690Z,33.89
2023-05-13T07:18:59.948Z,34.31
2023-05-13T07:20:03.687Z,34.61
2023-05-13T07:21:07.182Z,35.04
2023-05-13T07:22:10.670Z,35.26
2023-05-13T07:23:13.890Z,35.58
2023-05-13T07:24:17.478Z,35.77
2023-05-13T07:25:20.857Z,35.38
2023-05-13T07:26:24.281Z,34.49
2023-05-13T07:27:28.006Z,34.84
2023-05-13T07:28:31.434Z,35.03
2023-05-13T07:29:35.038Z,34.40
2023-05-13T07:30:42.079Z,33.84
2023-05-13T07:31:45.260Z,33.80
2023-05-13T07:32:53.694Z,33.22
2023-05-13T07:33:57.547Z,33.36
2023-05-13T07:35:00.483Z,31.58
2023-05-13T07:36:03.833Z,30.99
2023-05-13T07:37:06.918Z,32.19
2023-05-13T07:38:11.176Z,32.56
2023-05-13T07:39:14.732Z,32.71
2023-05-13T07:40:18.538Z,33.72
2023-05-13T07:41:22.025Z,34.54
2023-05-13T07:42:25.986Z,35.23
2023-05-13T07:43:29.354Z,35.77
2023-05-13T07:44:33.019Z,36.30
2023-05-13T07:45:36.838Z,36.55
2023-05-13T07:46:39.963Z,36.20
2023-05-13T07:47:44.579Z,36.05
2023-05-13T07:48:48.780Z,34.76
2023-05-13T07:49:52.408Z,33.51
2023-05-13T07:50:55.389Z,32.27
2023-05-13T07:51:58.527Z,31.18
2023-05-13T07:53:01.786Z,32.36
2023-05-13T07:54:05.079Z,29.70
2023-05-13T07:55:09.948Z,30.66
2023-05-13T07:56:13.308Z,31.42
2023-05-13T07:57:16.772Z,31.81
2023-05-13T07:58:21.194Z,31.70
2023-05-13T07:59:24.755Z,32.49
2023-05-13T08:00:28.118Z,32.20
2023-05-13T08:01:31.315Z,32.56
2023-05-13T08:02:36.219Z,33.52
2023-05-13T08:03:40.155Z,33.96
2023-05-13T08:04:43.760Z,33.59
2023-05-13T08:05:48.865Z,33.85
2023-05-13T08:06:52.280Z,33.99
2023-05-13T08:07:55.503Z,34.27
2023-05-13T08:08:58.671Z,32.42
2023-05-13T08:10:02.267Z,33.67
2023-05-13T08:11:05.644Z,34.73
2023-05-13T08:12:09.335Z,35.69
2023-05-13T08:13:12.430Z,36.36
2023-05-13T08:14:15.910Z,36.64
2023-05-13T08:15:20.082Z,37.16
2023-05-13T08:16:23.640Z,37.71
2023-05-13T08:17:27.299Z,37.80
2023-05-13T08:18:31.064Z,38.28
2023-05-13T08:19:34.327Z,38.41
2023-05-13T08:20:37.687Z,38.45
2023-05-13T08:21:40.861Z,38.10
2023-05-13T08:22:44.692Z,38.01
2023-05-13T08:23:48.541Z,37.47
2023-05-13T08:24:52.190Z,36.30
2023-05-13T08:25:55.780Z,36.82
2023-05-13T08:26:59.397Z,37.53
2023-05-13T08:28:04.370Z,37.71
2023-05-13T08:29:08.089Z,38.07
2023-05-13T08:30:11.941Z,38.38
2023-05-13T08:31:15.274Z,38.14
2023-05-13T08:32:19.382Z,37.99
2023-05-13T08:33:23.038Z,37.87
2023-05-13T08:34:26.754Z,37.83
2023-05-13T08:35:30.165Z,38.28
2023-05-13T08:36:33.421Z,38.77
2023-05-13T08:37:37.012Z,39.15
2023-05-13T08:38:40.298Z,39.42
2023-05-13T08:39:43.666Z,39.59
2023-05-13T08:40:47.415Z,39.61
2023-05-13T08:41:51.478Z,39.12
2023-05-13T08:42:54.847Z,39.57
2023-05-13T08:43:58.306Z,39.95
2023-05-13T08:45:05.237Z,40.15
2023-05-13T08:46:11.246Z,39.64
2023-05-13T08:47:33.290Z,39.23
2023-05-13T08:48:41.675Z,38.96
2023-05-13T08:49:44.774Z,39.54
2023-05-13T08:50:48.171Z,39.74
2023-05-13T08:51:51.624Z,39.87
2023-05-13T08:52:55.393Z,40.35
2023-05-13T08:53:58.401Z,40.57
2023-05-13T08:55:01.784Z,40.61
2023-05-13T08:56:05.828Z,39.51
2023-05-13T08:57:09.283Z,39.59
2023-05-13T08:58:12.863Z,39.46
2023-05-13T08:59:15.897Z,39.80
2023-05-13T09:00:21.397Z,39.99
2023-05-13T09:01:25.216Z,40.22
2023-05-13T09:02:28.255Z,40.51
2023-05-13T09:03:31.309Z,40.60
2023-05-13T09:04:38.458Z,40.99
2023-05-13T09:05:45.671Z,39.65
2023-05-13T09:06:48.885Z,40.10
2023-05-13T09:07:51.884Z,40.19
2023-05-13T09:08:56.993Z,40.38
2023-05-13T09:10:00.696Z,40.29
2023-05-13T09:11:04.497Z,40.14
2023-05-13T09:12:08.259Z,40.26
2023-05-13T09:13:13.217Z,39.73
2023-05-13T09:14:19.709Z,39.90
2023-05-13T09:15:24.809Z,39.58
2023-05-13T09:16:31.461Z,39.80
2023-05-13T09:17:39.091Z,38.75
2023-05-13T09:18:42.690Z,38.35
2023-05-13T09:19:46.380Z,37.64
2023-05-13T09:20:49.654Z,37.40
2023-05-13T09:21:54.257Z,37.10
2023-05-13T09:23:18.085Z,37.10
2023-05-13T09:24:25.197Z,37.24
2023-05-13T09:25:28.999Z,36.64
2023-05-13T09:26:32.271Z,36.95
2023-05-13T09:27:39.487Z,35.83
2023-05-13T09:28:42.711Z,35.08
2023-05-13T09:29:46.295Z,35.68
2023-05-13T09:30:55.404Z,36.68
2023-05-13T09:32:00.742Z,37.26
2023-05-13T09:33:15.019Z,37.49
2023-05-13T09:34:48.731Z,37.95
2023-05-13T09:35:54.719Z,38.28
2023-05-13T09:37:05.274Z,38.60
2023-05-13T09:38:15.078Z,38.89
2023-05-13T09:39:18.407Z,38.70
2023-05-13T09:40:21.835Z,38.98
2023-05-13T09:41:29.240Z,39.10
2023-05-13T09:42:33.602Z,39.25
2023-05-13T09:43:37.031Z,38.90
2023-05-13T09:44:40.229Z,37.82
2023-05-13T09:45:43.834Z,38.33
2023-05-13T09:46:47.406Z,37.27
2023-05-13T09:47:52.826Z,36.86
2023-05-13T09:48:59.785Z,36.73
2023-05-13T09:50:03.718Z,36.81
2023-05-13T09:51:07.140Z,35.89
2023-05-13T09:52:13.799Z,36.21
2023-05-13T09:53:18.012Z,36.91
2023-05-13T09:54:21.792Z,37.66
2023-05-13T09:55:25.489Z,37.51
2023-05-13T09:56:29.673Z,37.95
2023-05-13T09:57:33.771Z,38.53
2023-05-13T09:58:37.535Z,38.58
2023-05-13T09:59:40.690Z,38.77
2023-05-13T10:00:44.327Z,38.66
2023-05-13T10:01:48.134Z,38.60
2023-05-13T10:02:51.512Z,39.47
2023-05-13T10:03:56.767Z,40.02
2023-05-13T10:04:59.966Z,39.84
2023-05-13T10:06:03.664Z,40.33
2023-05-13T10:07:06.860Z,40.69
2023-05-13T10:08:11.675Z,40.05
2023-05-13T10:09:14.879Z,40.38
2023-05-13T10:10:18.379Z,40.77
2023-05-13T10:11:22.400Z,41.18
2023-05-13T10:12:26.708Z,41.58
2023-05-13T10:13:29.812Z,41.66
2023-05-13T10:14:33.312Z,42.01
2023-05-13T10:15:37.088Z,41.73
2023-05-13T10:16:40.308Z,41.79
2023-05-13T10:17:45.720Z,41.61
2023-05-13T10:18:48.796Z,41.38
2023-05-13T10:19:53.207Z,41.19
2023-05-13T10:20:56.950Z,41.28
2023-05-13T10:22:00.513Z,40.90
2023-05-13T10:23:04.785Z,40.53
2023-05-13T10:24:09.047Z,41.00
2023-05-13T10:25:12.733Z,41.38
2023-05-13T10:26:15.875Z,40.99
2023-05-13T10:27:18.923Z,40.38
2023-05-13T10:28:23.254Z,39.26
2023-05-13T10:29:26.535Z,38.87
2023-05-13T10:30:32.563Z,38.41
2023-05-13T10:31:35.891Z,38.22
2023-05-13T10:32:42.461Z,38.86
2023-05-13T10:33:45.882Z,38.58
2023-05-13T10:34:49.164Z,38.38
2023-05-13T10:36:07.243Z,38.81
2023-05-13T10:37:47.406Z,39.09
2023-05-13T10:39:34.777Z,39.22
2023-05-13T10:41:10.022Z,39.54
2023-05-13T10:42:38.899Z,39.31
2023-05-13T10:43:41.934Z,40.06
2023-05-13T10:44:45.682Z,39.07
2023-05-13T10:45:50.609Z,38.81
2023-05-13T10:46:54.411Z,38.37
2023-05-13T10:47:58.225Z,38.71
2023-05-13T10:49:01.298Z,38.26
2023-05-13T10:50:27.587Z,37.66
2023-05-13T10:51:30.834Z,37.32
2023-05-13T10:52:49.433Z,37.25
2023-05-13T10:53:53.774Z,36.55
2023-05-13T10:55:03.085Z,37.06
2023-05-13T10:56:08.468Z,37.59
2023-05-13T10:57:11.795Z,37.68
2023-05-13T10:58:15.346Z,37.95
2023-05-13T10:59:18.811Z,37.44
2023-05-13T11:00:25.124Z,37.78
2023-05-13T11:01:44.373Z,37.35
2023-05-13T11:02:52.986Z,37.38
2023-05-13T11:04:01.928Z,37.70
2023-05-13T11:05:06.198Z,38.12
2023-05-13T11:06:16.961Z,38.04
2023-05-13T11:07:20.420Z,37.55
2023-05-13T11:08:42.941Z,37.06
2023-05-13T11:09:51.519Z,37.27
2023-05-13T11:10:57.260Z,37.64
2023-05-13T11:12:00.949Z,37.47
2023-05-13T11:13:25.746Z,37.63
2023-05-13T11:14:29.679Z,37.60
2023-05-13T11:15:55.106Z,37.43
2023-05-13T11:17:00.892Z,36.54
2023-05-13T11:18:03.739Z,35.59
2023-05-13T11:19:10.764Z,35.79
2023-05-13T11:20:14.275Z,35.65
2023-05-13T11:21:17.822Z,35.47
2023-05-13T11:22:22.893Z,36.03
2023-05-13T11:23:26.314Z,35.86
2023-05-13T11:24:29.354Z,35.43
2023-05-13T11:25:33.399Z,35.51
2023-05-13T11:26:57.440Z,36.12
2023-05-13T11:28:00.608Z,36.44
2023-05-13T11:29:06.841Z,36.10
2023-05-13T11:30:23.750Z,35.95
2023-05-13T11:31:28.372Z,35.73
2023-05-13T11:32:57.091Z,35.99
2023-05-13T11:34:18.444Z,36.36
2023-05-13T11:35:24.945Z,36.29
2023-05-13T11:36:31.959Z,36.14
2023-05-13T11:37:35.244Z,36.28
2023-05-13T11:38:38.905Z,36.56
2023-05-13T11:39:42.866Z,36.75
2023-05-13T11:40:45.993Z,36.62
2023-05-13T11:41:52.327Z,36.17
2023-05-13T11:42:56.311Z,35.72
2023-05-13T11:44:00.659Z,35.73
2023-05-13T11:45:04.183Z,35.74
2023-05-13T11:46:08.220Z,35.57
2023-05-13T11:47:11.668Z,34.40
2023-05-13T11:48:25.138Z,33.59
2023-05-13T11:49:44.540Z,33.14
2023-05-13T11:50:48.173Z,32.23
2023-05-13T11:51:51.927Z,32.04
2023-05-13T11:53:00.618Z,31.72
2023-05-13T11:54:04.383Z,31.81
2023-05-13T11:55:07.799Z,31.68
2023-05-13T11:56:14.301Z,31.66
2023-05-13T11:57:33.562Z,32.09
2023-05-13T11:58:36.497Z,32.18
2023-05-13T11:59:47.978Z,31.99
2023-05-13T12:00:53.219Z,30.96
2023-05-13T12:02:03.234Z,30.05
2023-05-13T12:03:12.011Z,29.87
2023-05-13T12:04:15.303Z,29.46
2023-05-13T12:05:18.562Z,29.11
2023-05-13T12:06:22.085Z,29.11
2023-05-13T12:07:26.390Z,28.78
2023-05-13T12:08:30.996Z,28.50
2023-05-13T12:09:34.713Z,28.14
2023-05-13T12:10:44.531Z,28.27
2023-05-13T12:11:47.716Z,28.14
2023-05-13T12:12:51.125Z,28.22
2023-05-13T12:13:54.512Z,28.26
2023-05-13T12:15:00.613Z,27.94
2023-05-13T12:16:04.448Z,28.04
2023-05-13T12:17:08.248Z,27.78
2023-05-13T12:18:11.821Z,27.53
2023-05-13T12:19:15.539Z,27.37
2023-05-13T12:20:23.465Z,27.09
2023-05-13T12:21:26.769Z,26.99
2023-05-13T12:22:30.425Z,26.71
2023-05-13T12:23:42.818Z,26.52
2023-05-13T12:24:46.423Z,26.64
2023-05-13T12:25:51.784Z,26.49
2023-05-13T12:27:04.820Z,26.53
2023-05-13T12:28:18.711Z,26.23
2023-05-13T12:29:22.107Z,26.13
2023-05-13T12:30:25.399Z,26.26
2023-05-13T12:31:29.080Z,26.11
2023-05-13T12:32:32.526Z,25.98
2023-05-13T12:33:45.067Z,25.93
2023-05-13T12:34:51.461Z,25.97
2023-05-13T12:35:56.376Z,25.89
2023-05-13T12:37:13.433Z,25.71
2023-05-13T12:38:18.246Z,25.71
2023-05-13T12:39:22.021Z,25.79
2023-05-13T12:40:25.783Z,25.43
2023-05-13T12:41:32.970Z,25.30
2023-05-13T12:42:36.176Z,25.24
2023-05-13T12:43:41.715Z,24.96
2023-05-13T12:44:45.767Z,24.87
2023-05-13T12:45:53.102Z,24.94
2023-05-13T12:47:00.186Z,25.09
2023-05-13T12:48:03.730Z,25.29
2023-05-13T12:49:07.496Z,25.20
2023-05-13T12:50:11.258Z,25.15
2023-05-13T12:51:16.738Z,25.19
2023-05-13T12:52:20.959Z,25.13
2023-05-13T12:53:24.417Z,25.11
2023-05-13T12:54:27.725Z,25.09
2023-05-13T12:55:30.714Z,25.07
2023-05-13T12:56:34.600Z,25.08
2023-05-13T12:57:38.354Z,25.04
2023-05-13T12:58:41.536Z,24.89
2023-05-13T12:59:48.131Z,24.87
2023-05-13T13:00:51.375Z,24.75
2023-05-13T13:01:55.232Z,24.57
2023-05-13T13:02:58.493Z,24.46
2023-05-13T13:04:01.937Z,24.45
2023-05-13T13:05:05.474Z,24.40
2023-05-13T13:06:08.693Z,24.47
2023-05-13T13:07:15.476Z,24.50
2023-05-13T13:08:19.453Z,24.44
2023-05-13T13:09:23.032Z,24.36
2023-05-13T13:10:26.171Z,24.29
2023-05-13T13:11:29.157Z,24.06
2023-05-13T13:12:32.739Z,24.03
2023-05-13T13:13:38.705Z,24.04
2023-05-13T13:14:42.906Z,23.87
2023-05-13T13:15:46.693Z,23.82
2023-05-13T13:16:50.617Z,23.99
2023-05-13T13:17:54.040Z,23.96
2023-05-13T13:19:01.692Z,23.97
2023-05-13T13:20:07.731Z,23.82
2023-05-13T13:21:11.252Z,23.92
2023-05-13T13:22:14.849Z,23.91
2023-05-13T13:23:18.708Z,23.90
2023-05-13T13:24:21.987Z,23.88
2023-05-13T13:25:25.276Z,23.81
2023-05-13T13:26:28.566Z,23.73
2023-05-13T13:27:32.286Z,23.82
2023-05-13T13:28:35.803Z,23.80
2023-05-13T13:29:39.642Z,23.73
2023-05-13T13:30:47.483Z,23.79
2023-05-13T13:31:52.551Z,23.81
2023-05-13T13:32:55.861Z,23.73
2023-05-13T13:34:04.621Z,23.72
2023-05-13T13:35:08.832Z,23.72
2023-05-13T13:36:11.891Z,23.63
2023-05-13T13:37:15.126Z,23.50
2023-05-13T13:38:18.203Z,23.60
2023-05-13T13:39:21.706Z,23.62
2023-05-13T13:40:25.504Z,23.45
2023-05-13T13:41:28.726Z,23.33
2023-05-13T13:42:43.208Z,23.26
2023-05-13T13:43:48.251Z,23.21
2023-05-13T13:44:51.794Z,23.31
2023-05-13T13:45:54.790Z,23.32
2023-05-13T13:46:58.592Z,23.39
2023-05-13T13:48:02.514Z,23.48
2023-05-13T13:49:22.745Z,23.50
2023-05-13T13:50:27.382Z,23.46
2023-05-13T13:51:31.372Z,23.41
2023-05-13T13:52:34.655Z,23.53
2023-05-13T13:53:38.001Z,23.40
2023-05-13T13:54:41.423Z,23.30
2023-05-13T13:55:44.642Z,23.28
2023-05-13T13:56:48.253Z,23.21
2023-05-13T13:57:52.389Z,23.15
2023-05-13T13:58:55.724Z,23.11
2023-05-13T13:59:58.830Z,23.04
2023-05-13T14:01:02.180Z,23.14